Main page
METAR-TAF:

METAR-TAF

Airports :

Grand Marais/Cook County Airport

Grand Marais, Minnesota, United States

latitude: 47-50-18N, longitude: 090-22-59W, elevation: 548 m

Current weather observation

The report was made 51 minutes ago, at 18:30 UTC
Wind 8 kt from the West/Northwest with gusts up to 19 kt
Temperature 14°C
Humidity 21%
Pressure 1010 hPa
Visibility: 16.1 km
Clear sky

METAR: KCKC 231830Z AUTO 30008G19KT 10SM CLR 14/M08 A2983 RMK AO2

Time: 14:21 (19:21 UTC)


TAF: missing

Weather observations and forecasts of more than 4000 airports (METAR and TAF reports).

The available stations are represented by yellow and red dots on the map.

Hover mouse over dot to see the name of the station.

Then click to see weather observations and forecasts.

To change the map : click on the green buttons with a black cross to zoom in, on the green button with a dash to zoom out, or on the green arrows for adjacent maps.


METAR-TAF: